SULAYMANIYAH INTERNATIONAL AIRPORT
  • SulyAir
  • SulyAir
1 1
Arrival

ArrivalsMore >>

Departure

DeparturesMore >>

TAF

TAF ORSU 261700Z 2618/2718 33006KT CAVOK
BECMG 2708/2710 25015KT=

METARs